sensor_id;sensor_type;location;lat;lon;timestamp;P1;durP1;ratioP1;P2;durP2;ratioP2
6842;SDS011;3460;52.028;8.916;2022-12-10T00:01:29;27.00;;;17.10;;
6842;SDS011;3460;52.028;8.916;2022-12-10T00:03:57;31.13;;;17.97;;
6842;SDS011;3460;52.028;8.916;2022-12-10T00:06:25;28.70;;;16.47;;
6842;SDS011;3460;52.028;8.916;2022-12-10T00:08:53;27.87;;;17.77;;
6842;SDS011;3460;52.028;8.916;2022-12-10T00:11:22;29.77;;;18.13;;
6842;SDS011;3460;52.028;8.916;2022-12-10T00:13:49;28.00;;;16.90;;
6842;SDS011;3460;52.028;8.916;2022-12-10T00:16:18;27.47;;;16.40;;
6842;SDS011;3460;52.028;8.916;2022-12-10T00:18:46;29.23;;;17.60;;
6842;SDS011;3460;52.028;8.916;2022-12-10T00:21:14;29.17;;;17.63;;
6842;SDS011;3460;52.028;8.916;2022-12-10T00:23:42;28.57;;;17.57;;
6842;SDS011;3460;52.028;8.916;2022-12-10T00:26:10;27.87;;;16.93;;
6842;SDS011;3460;52.028;8.916;2022-12-10T00:28:39;32.83;;;19.30;;
6842;SDS011;3460;52.028;8.916;2022-12-10T00:31:08;30.97;;;17.07;;
6842;SDS011;3460;52.028;8.916;2022-12-10T00:33:36;30.60;;;18.83;;
6842;SDS011;3460;52.028;8.916;2022-12-10T00:36:04;27.97;;;16.97;;
6842;SDS011;3460;52.028;8.916;2022-12-10T00:38:32;25.43;;;16.33;;
6842;SDS011;3460;52.028;8.916;2022-12-10T00:40:59;27.60;;;16.57;;
6842;SDS011;3460;52.028;8.916;2022-12-10T00:43:26;29.70;;;17.37;;
6842;SDS011;3460;52.028;8.916;2022-12-10T00:45:54;26.17;;;16.90;;
6842;SDS011;3460;52.028;8.916;2022-12-10T00:48:21;28.23;;;17.00;;
6842;SDS011;3460;52.028;8.916;2022-12-10T00:50:54;28.60;;;17.50;;
6842;SDS011;3460;52.028;8.916;2022-12-10T00:53:22;32.33;;;18.63;;
6842;SDS011;3460;52.028;8.916;2022-12-10T00:55:49;30.53;;;18.50;;
6842;SDS011;3460;52.028;8.916;2022-12-10T00:58:17;31.17;;;19.67;;
6842;SDS011;3460;52.028;8.916;2022-12-10T01:00:43;32.67;;;19.43;;
6842;SDS011;3460;52.028;8.916;2022-12-10T01:03:11;30.37;;;19.63;;
6842;SDS011;3460;52.028;8.916;2022-12-10T01:05:38;34.30;;;19.13;;
6842;SDS011;3460;52.028;8.916;2022-12-10T01:08:05;30.27;;;19.00;;
6842;SDS011;3460;52.028;8.916;2022-12-10T01:10:32;31.83;;;18.50;;
6842;SDS011;3460;52.028;8.916;2022-12-10T01:12:59;27.77;;;17.30;;
6842;SDS011;3460;52.028;8.916;2022-12-10T01:15:26;29.17;;;17.43;;
6842;SDS011;3460;52.028;8.916;2022-12-10T01:17:52;33.33;;;19.10;;
6842;SDS011;3460;52.028;8.916;2022-12-10T01:20:20;28.63;;;18.07;;
6842;SDS011;3460;52.028;8.916;2022-12-10T01:22:47;29.93;;;18.37;;
6842;SDS011;3460;52.028;8.916;2022-12-10T01:25:14;27.27;;;17.00;;
6842;SDS011;3460;52.028;8.916;2022-12-10T01:27:41;27.67;;;16.83;;
6842;SDS011;3460;52.028;8.916;2022-12-10T01:30:08;26.63;;;17.73;;
6842;SDS011;3460;52.028;8.916;2022-12-10T01:32:36;28.33;;;18.27;;
6842;SDS011;3460;52.028;8.916;2022-12-10T01:35:03;27.37;;;17.43;;
6842;SDS011;3460;52.028;8.916;2022-12-10T01:37:31;29.27;;;17.40;;
6842;SDS011;3460;52.028;8.916;2022-12-10T01:39:58;27.73;;;16.03;;
6842;SDS011;3460;52.028;8.916;2022-12-10T01:42:25;25.53;;;17.33;;
6842;SDS011;3460;52.028;8.916;2022-12-10T01:44:59;30.53;;;17.20;;
6842;SDS011;3460;52.028;8.916;2022-12-10T01:47:31;30.70;;;18.80;;
6842;SDS011;3460;52.028;8.916;2022-12-10T01:49:58;33.27;;;18.20;;
6842;SDS011;3460;52.028;8.916;2022-12-10T01:52:26;29.53;;;18.87;;
6842;SDS011;3460;52.028;8.916;2022-12-10T01:54:55;30.17;;;18.20;;
6842;SDS011;3460;52.028;8.916;2022-12-10T01:57:22;30.70;;;17.93;;
6842;SDS011;3460;52.028;8.916;2022-12-10T01:59:52;32.07;;;17.90;;
6842;SDS011;3460;52.028;8.916;2022-12-10T02:02:26;29.57;;;18.60;;
6842;SDS011;3460;52.028;8.916;2022-12-10T02:05:13;28.53;;;17.20;;
6842;SDS011;3460;52.028;8.916;2022-12-10T02:07:51;29.67;;;17.07;;
6842;SDS011;3460;52.028;8.916;2022-12-10T02:10:27;28.80;;;18.10;;
6842;SDS011;3460;52.028;8.916;2022-12-10T02:13:05;27.03;;;17.17;;
6842;SDS011;3460;52.028;8.916;2022-12-10T02:15:38;31.00;;;17.80;;
6842;SDS011;3460;52.028;8.916;2022-12-10T02:18:09;27.53;;;16.83;;
6842;SDS011;3460;52.028;8.916;2022-12-10T02:20:40;27.03;;;16.43;;
6842;SDS011;3460;52.028;8.916;2022-12-10T02:23:10;27.97;;;17.33;;
6842;SDS011;3460;52.028;8.916;2022-12-10T02:25:41;25.37;;;16.60;;
6842;SDS011;3460;52.028;8.916;2022-12-10T02:28:13;30.70;;;16.77;;
6842;SDS011;3460;52.028;8.916;2022-12-10T02:30:48;28.70;;;17.63;;
6842;SDS011;3460;52.028;8.916;2022-12-10T02:33:18;27.17;;;16.70;;
6842;SDS011;3460;52.028;8.916;2022-12-10T02:35:48;29.47;;;17.17;;
6842;SDS011;3460;52.028;8.916;2022-12-10T02:38:17;26.70;;;16.97;;
6842;SDS011;3460;52.028;8.916;2022-12-10T02:40:50;25.33;;;16.53;;
6842;SDS011;3460;52.028;8.916;2022-12-10T02:43:20;26.57;;;16.17;;
6842;SDS011;3460;52.028;8.916;2022-12-10T02:45:50;28.33;;;16.83;;
6842;SDS011;3460;52.028;8.916;2022-12-10T02:48:17;25.57;;;16.27;;
6842;SDS011;3460;52.028;8.916;2022-12-10T02:50:45;27.23;;;16.73;;
6842;SDS011;3460;52.028;8.916;2022-12-10T02:53:12;26.17;;;16.70;;
6842;SDS011;3460;52.028;8.916;2022-12-10T02:55:51;27.20;;;17.57;;
6842;SDS011;3460;52.028;8.916;2022-12-10T02:58:27;29.30;;;17.60;;
6842;SDS011;3460;52.028;8.916;2022-12-10T03:01:05;25.90;;;16.03;;
6842;SDS011;3460;52.028;8.916;2022-12-10T03:03:42;28.40;;;17.43;;
6842;SDS011;3460;52.028;8.916;2022-12-10T03:06:16;26.37;;;16.17;;
6842;SDS011;3460;52.028;8.916;2022-12-10T03:08:47;29.07;;;17.47;;
6842;SDS011;3460;52.028;8.916;2022-12-10T03:11:17;30.00;;;17.27;;
6842;SDS011;3460;52.028;8.916;2022-12-10T03:13:48;26.73;;;17.13;;
6842;SDS011;3460;52.028;8.916;2022-12-10T03:16:20;24.83;;;16.80;;
6842;SDS011;3460;52.028;8.916;2022-12-10T03:18:52;27.60;;;17.40;;
6842;SDS011;3460;52.028;8.916;2022-12-10T03:21:22;26.50;;;16.57;;
6842;SDS011;3460;52.028;8.916;2022-12-10T03:23:50;27.97;;;16.63;;
6842;SDS011;3460;52.028;8.916;2022-12-10T03:26:17;26.47;;;17.00;;
6842;SDS011;3460;52.028;8.916;2022-12-10T03:28:46;29.50;;;17.87;;
6842;SDS011;3460;52.028;8.916;2022-12-10T03:31:16;26.67;;;16.83;;
6842;SDS011;3460;52.028;8.916;2022-12-10T03:33:46;25.63;;;15.90;;
6842;SDS011;3460;52.028;8.916;2022-12-10T03:36:14;26.70;;;16.57;;
6842;SDS011;3460;52.028;8.916;2022-12-10T03:38:42;28.33;;;16.80;;
6842;SDS011;3460;52.028;8.916;2022-12-10T03:41:09;26.73;;;16.90;;
6842;SDS011;3460;52.028;8.916;2022-12-10T03:43:43;25.43;;;16.07;;
6842;SDS011;3460;52.028;8.916;2022-12-10T03:46:16;26.63;;;17.33;;
6842;SDS011;3460;52.028;8.916;2022-12-10T03:48:42;28.93;;;17.03;;
6842;SDS011;3460;52.028;8.916;2022-12-10T03:51:10;26.93;;;17.30;;
6842;SDS011;3460;52.028;8.916;2022-12-10T03:53:37;28.40;;;18.23;;
6842;SDS011;3460;52.028;8.916;2022-12-10T03:56:04;28.13;;;17.03;;
6842;SDS011;3460;52.028;8.916;2022-12-10T03:58:31;28.90;;;17.00;;
6842;SDS011;3460;52.028;8.916;2022-12-10T04:00:57;29.57;;;17.83;;
6842;SDS011;3460;52.028;8.916;2022-12-10T04:03:24;28.40;;;17.13;;
6842;SDS011;3460;52.028;8.916;2022-12-10T04:05:51;29.97;;;17.43;;
6842;SDS011;3460;52.028;8.916;2022-12-10T04:08:19;27.37;;;16.37;;
6842;SDS011;3460;52.028;8.916;2022-12-10T04:10:46;29.93;;;17.80;;
6842;SDS011;3460;52.028;8.916;2022-12-10T04:13:12;26.97;;;16.80;;
6842;SDS011;3460;52.028;8.916;2022-12-10T04:15:56;27.93;;;16.57;;
6842;SDS011;3460;52.028;8.916;2022-12-10T04:18:40;25.47;;;16.90;;
6842;SDS011;3460;52.028;8.916;2022-12-10T04:21:07;25.43;;;16.90;;
6842;SDS011;3460;52.028;8.916;2022-12-10T04:23:53;26.43;;;16.47;;
6842;SDS011;3460;52.028;8.916;2022-12-10T04:26:37;24.50;;;15.73;;
6842;SDS011;3460;52.028;8.916;2022-12-10T04:29:19;28.60;;;16.67;;
6842;SDS011;3460;52.028;8.916;2022-12-10T04:31:46;25.50;;;15.80;;
6842;SDS011;3460;52.028;8.916;2022-12-10T04:34:12;25.87;;;16.37;;
6842;SDS011;3460;52.028;8.916;2022-12-10T04:36:39;25.30;;;16.00;;
6842;SDS011;3460;52.028;8.916;2022-12-10T04:39:07;26.20;;;16.80;;
6842;SDS011;3460;52.028;8.916;2022-12-10T04:41:36;29.43;;;16.97;;
6842;SDS011;3460;52.028;8.916;2022-12-10T04:44:03;27.50;;;17.53;;
6842;SDS011;3460;52.028;8.916;2022-12-10T04:46:30;26.37;;;16.60;;
6842;SDS011;3460;52.028;8.916;2022-12-10T04:48:57;27.47;;;16.33;;
6842;SDS011;3460;52.028;8.916;2022-12-10T04:51:23;28.30;;;17.23;;
6842;SDS011;3460;52.028;8.916;2022-12-10T04:53:52;26.40;;;16.50;;
6842;SDS011;3460;52.028;8.916;2022-12-10T04:56:20;27.70;;;17.30;;
6842;SDS011;3460;52.028;8.916;2022-12-10T04:58:47;27.80;;;17.53;;
6842;SDS011;3460;52.028;8.916;2022-12-10T05:01:14;26.43;;;17.20;;
6842;SDS011;3460;52.028;8.916;2022-12-10T05:03:40;27.57;;;18.30;;
6842;SDS011;3460;52.028;8.916;2022-12-10T05:06:08;29.23;;;17.27;;
6842;SDS011;3460;52.028;8.916;2022-12-10T05:08:37;29.37;;;17.60;;
6842;SDS011;3460;52.028;8.916;2022-12-10T05:11:05;27.93;;;17.67;;
6842;SDS011;3460;52.028;8.916;2022-12-10T05:13:35;27.23;;;17.07;;
6842;SDS011;3460;52.028;8.916;2022-12-10T05:16:02;29.50;;;17.47;;
6842;SDS011;3460;52.028;8.916;2022-12-10T05:18:29;25.30;;;16.87;;
6842;SDS011;3460;52.028;8.916;2022-12-10T05:20:58;28.80;;;17.20;;
6842;SDS011;3460;52.028;8.916;2022-12-10T05:23:24;26.53;;;17.47;;
6842;SDS011;3460;52.028;8.916;2022-12-10T05:25:59;26.40;;;16.27;;
6842;SDS011;3460;52.028;8.916;2022-12-10T05:28:27;27.90;;;18.20;;
6842;SDS011;3460;52.028;8.916;2022-12-10T05:30:57;30.87;;;17.97;;
6842;SDS011;3460;52.028;8.916;2022-12-10T05:33:24;29.50;;;18.10;;
6842;SDS011;3460;52.028;8.916;2022-12-10T05:35:52;29.30;;;17.37;;
6842;SDS011;3460;52.028;8.916;2022-12-10T05:38:20;25.90;;;16.90;;
6842;SDS011;3460;52.028;8.916;2022-12-10T05:40:47;28.60;;;17.73;;
6842;SDS011;3460;52.028;8.916;2022-12-10T05:43:15;25.93;;;17.00;;
6842;SDS011;3460;52.028;8.916;2022-12-10T05:45:42;29.80;;;16.93;;
6842;SDS011;3460;52.028;8.916;2022-12-10T05:48:11;28.33;;;17.10;;
6842;SDS011;3460;52.028;8.916;2022-12-10T05:50:39;26.67;;;17.00;;
6842;SDS011;3460;52.028;8.916;2022-12-10T05:53:06;29.67;;;17.40;;
6842;SDS011;3460;52.028;8.916;2022-12-10T05:55:34;27.07;;;16.30;;
6842;SDS011;3460;52.028;8.916;2022-12-10T05:58:01;23.90;;;15.33;;
6842;SDS011;3460;52.028;8.916;2022-12-10T06:00:28;28.20;;;17.03;;
6842;SDS011;3460;52.028;8.916;2022-12-10T06:02:55;29.80;;;17.03;;
6842;SDS011;3460;52.028;8.916;2022-12-10T06:05:23;27.80;;;17.67;;
6842;SDS011;3460;52.028;8.916;2022-12-10T06:07:50;31.67;;;18.13;;
6842;SDS011;3460;52.028;8.916;2022-12-10T06:10:17;30.73;;;16.73;;
6842;SDS011;3460;52.028;8.916;2022-12-10T06:12:44;32.27;;;17.00;;
6842;SDS011;3460;52.028;8.916;2022-12-10T06:15:11;25.93;;;16.47;;
6842;SDS011;3460;52.028;8.916;2022-12-10T06:17:37;29.13;;;17.73;;
6842;SDS011;3460;52.028;8.916;2022-12-10T06:20:04;29.90;;;17.80;;
6842;SDS011;3460;52.028;8.916;2022-12-10T06:22:34;32.40;;;17.73;;
6842;SDS011;3460;52.028;8.916;2022-12-10T06:25:00;32.50;;;18.43;;
6842;SDS011;3460;52.028;8.916;2022-12-10T06:27:29;31.90;;;18.07;;
6842;SDS011;3460;52.028;8.916;2022-12-10T06:29:56;32.13;;;17.43;;
6842;SDS011;3460;52.028;8.916;2022-12-10T06:32:23;32.17;;;17.60;;
6842;SDS011;3460;52.028;8.916;2022-12-10T06:34:50;31.57;;;18.10;;
6842;SDS011;3460;52.028;8.916;2022-12-10T06:37:17;31.70;;;17.30;;
6842;SDS011;3460;52.028;8.916;2022-12-10T06:39:45;30.67;;;17.60;;
6842;SDS011;3460;52.028;8.916;2022-12-10T06:42:12;30.23;;;16.70;;
6842;SDS011;3460;52.028;8.916;2022-12-10T06:44:39;29.57;;;16.37;;
6842;SDS011;3460;52.028;8.916;2022-12-10T06:47:05;30.57;;;16.77;;
6842;SDS011;3460;52.028;8.916;2022-12-10T06:49:32;35.70;;;17.47;;
6842;SDS011;3460;52.028;8.916;2022-12-10T06:51:59;32.93;;;16.90;;
6842;SDS011;3460;52.028;8.916;2022-12-10T06:54:25;31.43;;;17.03;;
6842;SDS011;3460;52.028;8.916;2022-12-10T06:56:53;33.30;;;16.27;;
6842;SDS011;3460;52.028;8.916;2022-12-10T06:59:20;35.53;;;16.93;;
6842;SDS011;3460;52.028;8.916;2022-12-10T07:01:47;35.43;;;17.73;;
6842;SDS011;3460;52.028;8.916;2022-12-10T07:04:14;33.90;;;17.07;;
6842;SDS011;3460;52.028;8.916;2022-12-10T07:06:41;32.53;;;18.07;;
6842;SDS011;3460;52.028;8.916;2022-12-10T07:09:08;34.20;;;17.23;;
6842;SDS011;3460;52.028;8.916;2022-12-10T07:11:35;37.33;;;18.10;;
6842;SDS011;3460;52.028;8.916;2022-12-10T07:14:04;35.10;;;15.83;;
6842;SDS011;3460;52.028;8.916;2022-12-10T07:16:31;38.13;;;17.87;;
6842;SDS011;3460;52.028;8.916;2022-12-10T07:18:59;38.13;;;18.47;;
6842;SDS011;3460;52.028;8.916;2022-12-10T07:21:27;36.30;;;17.40;;
6842;SDS011;3460;52.028;8.916;2022-12-10T07:23:57;37.63;;;17.83;;
6842;SDS011;3460;52.028;8.916;2022-12-10T07:26:27;40.27;;;19.07;;
6842;SDS011;3460;52.028;8.916;2022-12-10T07:28:54;38.40;;;18.03;;
6842;SDS011;3460;52.028;8.916;2022-12-10T07:31:22;35.70;;;17.53;;
6842;SDS011;3460;52.028;8.916;2022-12-10T07:33:49;36.77;;;17.83;;
6842;SDS011;3460;52.028;8.916;2022-12-10T07:36:17;38.67;;;19.03;;
6842;SDS011;3460;52.028;8.916;2022-12-10T07:38:45;40.90;;;19.03;;
6842;SDS011;3460;52.028;8.916;2022-12-10T07:41:12;40.33;;;18.27;;
6842;SDS011;3460;52.028;8.916;2022-12-10T07:43:39;37.87;;;17.90;;
6842;SDS011;3460;52.028;8.916;2022-12-10T07:46:09;36.03;;;18.13;;
6842;SDS011;3460;52.028;8.916;2022-12-10T07:48:38;38.77;;;16.87;;
6842;SDS011;3460;52.028;8.916;2022-12-10T07:51:06;39.07;;;18.57;;
6842;SDS011;3460;52.028;8.916;2022-12-10T07:53:33;37.00;;;17.77;;
6842;SDS011;3460;52.028;8.916;2022-12-10T07:56:01;37.97;;;18.47;;
6842;SDS011;3460;52.028;8.916;2022-12-10T07:58:28;39.70;;;18.97;;
6842;SDS011;3460;52.028;8.916;2022-12-10T08:00:55;36.37;;;18.03;;
6842;SDS011;3460;52.028;8.916;2022-12-10T08:03:22;39.17;;;19.47;;
6842;SDS011;3460;52.028;8.916;2022-12-10T08:05:56;40.23;;;16.83;;
6842;SDS011;3460;52.028;8.916;2022-12-10T08:08:26;36.73;;;17.77;;
6842;SDS011;3460;52.028;8.916;2022-12-10T08:10:53;35.57;;;17.57;;
6842;SDS011;3460;52.028;8.916;2022-12-10T08:13:20;37.07;;;17.87;;
6842;SDS011;3460;52.028;8.916;2022-12-10T08:15:46;36.53;;;17.20;;
6842;SDS011;3460;52.028;8.916;2022-12-10T08:18:13;32.40;;;16.03;;
6842;SDS011;3460;52.028;8.916;2022-12-10T08:20:40;29.83;;;16.83;;
6842;SDS011;3460;52.028;8.916;2022-12-10T08:23:08;33.33;;;16.73;;
6842;SDS011;3460;52.028;8.916;2022-12-10T08:25:35;31.27;;;17.07;;
6842;SDS011;3460;52.028;8.916;2022-12-10T08:28:02;33.60;;;16.90;;
6842;SDS011;3460;52.028;8.916;2022-12-10T08:30:29;32.40;;;16.90;;
6842;SDS011;3460;52.028;8.916;2022-12-10T08:32:56;32.10;;;16.80;;
6842;SDS011;3460;52.028;8.916;2022-12-10T08:35:22;34.67;;;16.93;;
6842;SDS011;3460;52.028;8.916;2022-12-10T08:37:49;32.77;;;17.53;;
6842;SDS011;3460;52.028;8.916;2022-12-10T08:40:17;37.20;;;17.57;;
6842;SDS011;3460;52.028;8.916;2022-12-10T08:42:44;37.47;;;17.57;;
6842;SDS011;3460;52.028;8.916;2022-12-10T08:45:11;34.93;;;17.03;;
6842;SDS011;3460;52.028;8.916;2022-12-10T08:47:37;35.67;;;17.83;;
6842;SDS011;3460;52.028;8.916;2022-12-10T08:50:04;35.03;;;17.63;;
6842;SDS011;3460;52.028;8.916;2022-12-10T08:52:31;29.90;;;15.97;;
6842;SDS011;3460;52.028;8.916;2022-12-10T08:54:58;33.50;;;17.13;;
6842;SDS011;3460;52.028;8.916;2022-12-10T08:57:26;31.87;;;16.93;;
6842;SDS011;3460;52.028;8.916;2022-12-10T08:59:53;32.80;;;17.87;;
6842;SDS011;3460;52.028;8.916;2022-12-10T09:02:19;32.60;;;17.23;;
6842;SDS011;3460;52.028;8.916;2022-12-10T09:04:46;35.57;;;16.47;;
6842;SDS011;3460;52.028;8.916;2022-12-10T09:07:14;32.47;;;16.43;;
6842;SDS011;3460;52.028;8.916;2022-12-10T09:09:44;34.60;;;17.40;;
6842;SDS011;3460;52.028;8.916;2022-12-10T09:12:11;35.57;;;16.73;;
6842;SDS011;3460;52.028;8.916;2022-12-10T09:14:39;34.97;;;17.63;;
6842;SDS011;3460;52.028;8.916;2022-12-10T09:17:07;32.40;;;17.53;;
6842;SDS011;3460;52.028;8.916;2022-12-10T09:19:34;33.53;;;17.93;;
6842;SDS011;3460;52.028;8.916;2022-12-10T09:22:01;37.37;;;19.77;;
6842;SDS011;3460;52.028;8.916;2022-12-10T09:24:28;31.93;;;17.27;;
6842;SDS011;3460;52.028;8.916;2022-12-10T09:26:54;30.83;;;16.27;;
6842;SDS011;3460;52.028;8.916;2022-12-10T09:29:21;34.60;;;17.13;;
6842;SDS011;3460;52.028;8.916;2022-12-10T09:31:50;31.20;;;16.07;;
6842;SDS011;3460;52.028;8.916;2022-12-10T09:34:17;32.97;;;16.83;;
6842;SDS011;3460;52.028;8.916;2022-12-10T09:36:44;37.60;;;18.73;;
6842;SDS011;3460;52.028;8.916;2022-12-10T09:39:11;34.73;;;18.07;;
6842;SDS011;3460;52.028;8.916;2022-12-10T09:41:56;33.63;;;17.43;;
6842;SDS011;3460;52.028;8.916;2022-12-10T09:44:38;29.67;;;16.07;;
6842;SDS011;3460;52.028;8.916;2022-12-10T09:47:14;27.80;;;14.97;;
6842;SDS011;3460;52.028;8.916;2022-12-10T09:49:45;31.93;;;17.20;;
6842;SDS011;3460;52.028;8.916;2022-12-10T09:52:21;31.23;;;16.33;;
6842;SDS011;3460;52.028;8.916;2022-12-10T09:54:50;50.00;;;26.10;;
6842;SDS011;3460;52.028;8.916;2022-12-10T09:57:21;46.83;;;24.57;;
6842;SDS011;3460;52.028;8.916;2022-12-10T09:59:51;48.87;;;26.87;;
6842;SDS011;3460;52.028;8.916;2022-12-10T10:02:21;44.97;;;25.70;;
6842;SDS011;3460;52.028;8.916;2022-12-10T10:04:50;15.43;;;9.50;;
6842;SDS011;3460;52.028;8.916;2022-12-10T10:07:20;12.53;;;7.90;;
6842;SDS011;3460;52.028;8.916;2022-12-10T10:09:49;9.33;;;6.13;;
6842;SDS011;3460;52.028;8.916;2022-12-10T10:12:17;10.40;;;7.00;;
6842;SDS011;3460;52.028;8.916;2022-12-10T10:14:44;15.13;;;7.70;;
6842;SDS011;3460;52.028;8.916;2022-12-10T10:17:12;27.10;;;13.97;;
6842;SDS011;3460;52.028;8.916;2022-12-10T10:19:46;24.67;;;15.07;;
6842;SDS011;3460;52.028;8.916;2022-12-10T10:22:14;25.97;;;14.73;;
6842;SDS011;3460;52.028;8.916;2022-12-10T10:24:42;15.47;;;9.57;;
6842;SDS011;3460;52.028;8.916;2022-12-10T10:27:13;14.20;;;8.73;;
6842;SDS011;3460;52.028;8.916;2022-12-10T10:29:42;12.73;;;8.57;;
6842;SDS011;3460;52.028;8.916;2022-12-10T10:32:11;11.27;;;7.90;;
6842;SDS011;3460;52.028;8.916;2022-12-10T10:34:40;10.53;;;6.17;;
6842;SDS011;3460;52.028;8.916;2022-12-10T10:37:12;9.03;;;6.47;;
6842;SDS011;3460;52.028;8.916;2022-12-10T10:39:45;9.63;;;6.73;;
6842;SDS011;3460;52.028;8.916;2022-12-10T10:42:14;12.13;;;7.77;;
6842;SDS011;3460;52.028;8.916;2022-12-10T10:44:53;24.80;;;13.33;;
6842;SDS011;3460;52.028;8.916;2022-12-10T10:47:24;21.07;;;13.17;;
6842;SDS011;3460;52.028;8.916;2022-12-10T10:49:52;21.17;;;12.27;;
6842;SDS011;3460;52.028;8.916;2022-12-10T10:52:20;16.07;;;11.20;;
6842;SDS011;3460;52.028;8.916;2022-12-10T10:54:48;15.47;;;10.33;;
6842;SDS011;3460;52.028;8.916;2022-12-10T10:57:15;24.63;;;15.63;;
6842;SDS011;3460;52.028;8.916;2022-12-10T10:59:48;23.37;;;13.47;;
6842;SDS011;3460;52.028;8.916;2022-12-10T11:02:18;21.47;;;13.57;;
6842;SDS011;3460;52.028;8.916;2022-12-10T11:04:47;26.03;;;16.57;;
6842;SDS011;3460;52.028;8.916;2022-12-10T11:07:19;25.97;;;14.90;;
6842;SDS011;3460;52.028;8.916;2022-12-10T11:09:50;24.17;;;14.70;;
6842;SDS011;3460;52.028;8.916;2022-12-10T11:12:26;21.13;;;12.57;;
6842;SDS011;3460;52.028;8.916;2022-12-10T11:14:56;17.33;;;11.83;;
6842;SDS011;3460;52.028;8.916;2022-12-10T11:17:23;12.97;;;8.47;;
6842;SDS011;3460;52.028;8.916;2022-12-10T11:19:55;13.13;;;8.33;;
6842;SDS011;3460;52.028;8.916;2022-12-10T11:22:27;13.03;;;9.13;;
6842;SDS011;3460;52.028;8.916;2022-12-10T11:24:54;12.43;;;8.20;;
6842;SDS011;3460;52.028;8.916;2022-12-10T11:27:29;11.20;;;7.73;;
6842;SDS011;3460;52.028;8.916;2022-12-10T11:30:11;15.70;;;9.63;;
6842;SDS011;3460;52.028;8.916;2022-12-10T11:35:40;14.00;;;9.17;;
6842;SDS011;3460;52.028;8.916;2022-12-10T11:38:20;10.53;;;7.17;;
6842;SDS011;3460;52.028;8.916;2022-12-10T11:40:50;9.90;;;8.43;;
6842;SDS011;3460;52.028;8.916;2022-12-10T11:46:28;12.90;;;9.03;;
6842;SDS011;3460;52.028;8.916;2022-12-10T11:49:09;12.83;;;8.17;;
6842;SDS011;3460;52.028;8.916;2022-12-10T11:51:46;13.90;;;7.80;;
6842;SDS011;3460;52.028;8.916;2022-12-10T11:54:28;11.70;;;6.43;;
6842;SDS011;3460;52.028;8.916;2022-12-10T11:57:08;10.17;;;6.87;;
6842;SDS011;3460;52.028;8.916;2022-12-10T11:59:44;12.33;;;7.43;;
6842;SDS011;3460;52.028;8.916;2022-12-10T12:02:23;9.13;;;6.70;;
6842;SDS011;3460;52.028;8.916;2022-12-10T12:05:12;10.70;;;7.60;;
6842;SDS011;3460;52.028;8.916;2022-12-10T12:07:48;11.10;;;7.90;;
6842;SDS011;3460;52.028;8.916;2022-12-10T12:10:38;14.63;;;9.43;;
6842;SDS011;3460;52.028;8.916;2022-12-10T12:13:22;15.43;;;8.93;;
6842;SDS011;3460;52.028;8.916;2022-12-10T12:15:52;12.47;;;8.13;;
6842;SDS011;3460;52.028;8.916;2022-12-10T12:18:25;22.10;;;13.10;;
6842;SDS011;3460;52.028;8.916;2022-12-10T12:20:59;16.47;;;9.40;;
6842;SDS011;3460;52.028;8.916;2022-12-10T12:23:29;12.00;;;7.93;;
6842;SDS011;3460;52.028;8.916;2022-12-10T12:26:06;9.73;;;6.33;;
6842;SDS011;3460;52.028;8.916;2022-12-10T12:28:38;9.53;;;6.57;;
6842;SDS011;3460;52.028;8.916;2022-12-10T12:31:08;10.30;;;6.93;;
6842;SDS011;3460;52.028;8.916;2022-12-10T12:33:40;13.27;;;7.13;;
6842;SDS011;3460;52.028;8.916;2022-12-10T12:36:12;10.97;;;7.30;;
6842;SDS011;3460;52.028;8.916;2022-12-10T12:38:45;11.73;;;7.77;;
6842;SDS011;3460;52.028;8.916;2022-12-10T12:41:21;13.00;;;8.30;;
6842;SDS011;3460;52.028;8.916;2022-12-10T12:43:58;12.33;;;8.33;;
6842;SDS011;3460;52.028;8.916;2022-12-10T12:46:29;13.53;;;8.80;;
6842;SDS011;3460;52.028;8.916;2022-12-10T12:49:02;12.30;;;8.47;;
6842;SDS011;3460;52.028;8.916;2022-12-10T12:51:33;12.00;;;8.67;;
6842;SDS011;3460;52.028;8.916;2022-12-10T12:54:04;14.80;;;9.63;;
6842;SDS011;3460;52.028;8.916;2022-12-10T12:56:40;13.90;;;9.07;;
6842;SDS011;3460;52.028;8.916;2022-12-10T12:59:21;11.77;;;7.80;;
6842;SDS011;3460;52.028;8.916;2022-12-10T13:02:01;15.47;;;9.67;;
6842;SDS011;3460;52.028;8.916;2022-12-10T13:04:33;14.80;;;10.27;;
6842;SDS011;3460;52.028;8.916;2022-12-10T13:10:08;12.60;;;8.53;;
6842;SDS011;3460;52.028;8.916;2022-12-10T13:12:51;12.13;;;7.93;;
6842;SDS011;3460;52.028;8.916;2022-12-10T13:15:33;11.37;;;8.20;;
6842;SDS011;3460;52.028;8.916;2022-12-10T13:18:17;10.40;;;7.17;;
6842;SDS011;3460;52.028;8.916;2022-12-10T13:20:47;65.80;;;33.77;;
6842;SDS011;3460;52.028;8.916;2022-12-10T13:23:28;17.30;;;10.97;;
6842;SDS011;3460;52.028;8.916;2022-12-10T13:25:57;14.07;;;9.37;;
6842;SDS011;3460;52.028;8.916;2022-12-10T13:28:28;15.47;;;9.40;;
6842;SDS011;3460;52.028;8.916;2022-12-10T13:31:07;11.23;;;7.80;;
6842;SDS011;3460;52.028;8.916;2022-12-10T13:33:47;13.23;;;8.00;;
6842;SDS011;3460;52.028;8.916;2022-12-10T13:36:20;12.20;;;7.63;;
6842;SDS011;3460;52.028;8.916;2022-12-10T13:39:02;13.43;;;8.77;;
6842;SDS011;3460;52.028;8.916;2022-12-10T13:45:16;13.07;;;8.80;;
6842;SDS011;3460;52.028;8.916;2022-12-10T13:47:52;12.10;;;7.90;;
6842;SDS011;3460;52.028;8.916;2022-12-10T13:50:22;11.10;;;8.07;;
6842;SDS011;3460;52.028;8.916;2022-12-10T13:53:00;12.47;;;8.27;;
6842;SDS011;3460;52.028;8.916;2022-12-10T13:55:36;11.30;;;7.60;;
6842;SDS011;3460;52.028;8.916;2022-12-10T13:58:15;13.50;;;8.93;;
6842;SDS011;3460;52.028;8.916;2022-12-10T14:00:55;12.70;;;8.97;;
6842;SDS011;3460;52.028;8.916;2022-12-10T14:03:41;14.93;;;9.00;;
6842;SDS011;3460;52.028;8.916;2022-12-10T14:06:24;18.20;;;9.17;;
6842;SDS011;3460;52.028;8.916;2022-12-10T14:08:53;38.27;;;13.53;;
6842;SDS011;3460;52.028;8.916;2022-12-10T14:11:25;65.57;;;18.80;;
6842;SDS011;3460;52.028;8.916;2022-12-10T14:13:56;57.33;;;18.77;;
6842;SDS011;3460;52.028;8.916;2022-12-10T14:16:26;55.37;;;19.20;;
6842;SDS011;3460;52.028;8.916;2022-12-10T14:18:57;58.17;;;19.20;;
6842;SDS011;3460;52.028;8.916;2022-12-10T14:21:25;44.83;;;18.43;;
6842;SDS011;3460;52.028;8.916;2022-12-10T14:23:57;41.10;;;16.67;;
6842;SDS011;3460;52.028;8.916;2022-12-10T14:26:25;39.60;;;17.73;;
6842;SDS011;3460;52.028;8.916;2022-12-10T14:28:54;27.03;;;12.57;;
6842;SDS011;3460;52.028;8.916;2022-12-10T14:31:24;13.93;;;9.30;;
6842;SDS011;3460;52.028;8.916;2022-12-10T14:33:55;18.60;;;10.90;;
6842;SDS011;3460;52.028;8.916;2022-12-10T14:36:26;16.47;;;10.83;;
6842;SDS011;3460;52.028;8.916;2022-12-10T14:38:55;13.70;;;9.53;;
6842;SDS011;3460;52.028;8.916;2022-12-10T14:41:23;12.63;;;8.87;;
6842;SDS011;3460;52.028;8.916;2022-12-10T14:43:52;12.63;;;9.20;;
6842;SDS011;3460;52.028;8.916;2022-12-10T14:46:20;15.03;;;9.30;;
6842;SDS011;3460;52.028;8.916;2022-12-10T14:48:50;13.20;;;9.83;;
6842;SDS011;3460;52.028;8.916;2022-12-10T14:51:20;14.67;;;10.60;;
6842;SDS011;3460;52.028;8.916;2022-12-10T14:53:48;16.67;;;10.90;;
6842;SDS011;3460;52.028;8.916;2022-12-10T14:56:18;16.07;;;11.17;;
6842;SDS011;3460;52.028;8.916;2022-12-10T14:58:49;12.80;;;9.10;;
6842;SDS011;3460;52.028;8.916;2022-12-10T15:01:23;14.53;;;9.67;;
6842;SDS011;3460;52.028;8.916;2022-12-10T15:03:55;14.33;;;10.47;;
6842;SDS011;3460;52.028;8.916;2022-12-10T15:06:25;15.20;;;10.50;;
6842;SDS011;3460;52.028;8.916;2022-12-10T15:08:53;17.67;;;13.10;;
6842;SDS011;3460;52.028;8.916;2022-12-10T15:11:22;16.63;;;11.93;;
6842;SDS011;3460;52.028;8.916;2022-12-10T15:13:52;15.37;;;11.40;;
6842;SDS011;3460;52.028;8.916;2022-12-10T15:16:27;17.47;;;12.13;;
6842;SDS011;3460;52.028;8.916;2022-12-10T15:19:07;18.70;;;13.50;;
6842;SDS011;3460;52.028;8.916;2022-12-10T15:21:45;17.97;;;12.27;;